createdAt,value
2019-02-09T00:00:47.537Z,7.90
2019-02-09T00:03:16.444Z,8.00
2019-02-09T00:05:45.147Z,8.00
2019-02-09T00:08:15.570Z,8.00
2019-02-09T00:10:44.121Z,8.00
2019-02-09T00:13:12.575Z,8.00
2019-02-09T00:15:41.183Z,8.00
2019-02-09T00:18:09.961Z,8.10
2019-02-09T00:20:38.437Z,8.10
2019-02-09T00:23:07.731Z,8.10
2019-02-09T00:25:36.565Z,8.10
2019-02-09T00:28:07.471Z,8.10
2019-02-09T00:30:36.348Z,8.10
2019-02-09T00:33:05.153Z,8.20
2019-02-09T00:35:34.160Z,8.10
2019-02-09T00:38:03.820Z,8.10
2019-02-09T00:40:33.849Z,8.10
2019-02-09T00:43:02.342Z,8.10
2019-02-09T00:45:30.804Z,8.20
2019-02-09T00:47:59.315Z,8.10
2019-02-09T00:50:28.109Z,8.10
2019-02-09T00:52:56.755Z,8.10
2019-02-09T00:55:28.913Z,8.10
2019-02-09T00:57:57.445Z,8.10
2019-02-09T01:00:31.533Z,8.10
2019-02-09T01:03:02.263Z,8.10
2019-02-09T01:05:33.522Z,8.00
2019-02-09T01:08:01.986Z,8.10
2019-02-09T01:10:31.197Z,8.00
2019-02-09T01:13:00.478Z,8.00
2019-02-09T01:15:28.992Z,8.00
2019-02-09T01:17:57.917Z,7.90
2019-02-09T01:20:27.944Z,7.90
2019-02-09T01:22:57.612Z,7.90
2019-02-09T01:25:26.405Z,7.90
2019-02-09T01:27:55.023Z,7.90
2019-02-09T01:30:26.475Z,7.90
2019-02-09T01:32:55.426Z,7.90
2019-02-09T01:35:24.294Z,7.90
2019-02-09T01:37:53.320Z,7.90
2019-02-09T01:40:24.261Z,7.80
2019-02-09T01:42:53.416Z,7.80
2019-02-09T01:45:24.796Z,7.70
2019-02-09T01:47:53.876Z,7.70
2019-02-09T01:50:23.986Z,7.70
2019-02-09T01:52:52.608Z,7.70
2019-02-09T01:55:21.468Z,7.70
2019-02-09T01:57:50.350Z,7.80
2019-02-09T02:00:21.603Z,7.80
2019-02-09T02:02:50.600Z,7.80
2019-02-09T02:05:21.805Z,7.90
2019-02-09T02:07:50.419Z,7.90
2019-02-09T02:10:25.009Z,7.90
2019-02-09T02:12:55.864Z,7.90
2019-02-09T02:15:24.877Z,7.90
2019-02-09T02:17:53.610Z,7.90
2019-02-09T02:20:30.715Z,7.90
2019-02-09T02:22:59.589Z,7.80
2019-02-09T02:25:28.476Z,7.70
2019-02-09T02:27:58.409Z,7.70
2019-02-09T02:30:29.840Z,7.70
2019-02-09T02:32:58.480Z,7.70
2019-02-09T02:35:28.764Z,7.60
2019-02-09T02:37:57.563Z,7.60
2019-02-09T02:40:26.425Z,7.70
2019-02-09T02:42:55.260Z,7.70
2019-02-09T02:45:25.277Z,7.70
2019-02-09T02:47:53.891Z,7.80
2019-02-09T02:50:23.676Z,7.80
2019-02-09T02:52:53.473Z,7.70
2019-02-09T02:55:30.077Z,7.80
2019-02-09T02:57:59.953Z,7.80
2019-02-09T03:00:32.996Z,7.80
2019-02-09T03:03:03.242Z,7.80
2019-02-09T03:05:32.102Z,7.90
2019-02-09T03:08:03.248Z,7.90
2019-02-09T03:10:32.068Z,7.90
2019-02-09T03:13:00.830Z,7.90
2019-02-09T03:15:32.393Z,8.00
2019-02-09T03:18:01.285Z,8.00
2019-02-09T03:20:30.052Z,8.00
2019-02-09T03:22:58.843Z,8.00
2019-02-09T03:25:32.610Z,8.00
2019-02-09T03:28:02.144Z,8.00
2019-02-09T03:30:30.998Z,8.00
2019-02-09T03:33:00.089Z,8.00
2019-02-09T03:35:28.912Z,8.00
2019-02-09T03:37:57.432Z,8.00
2019-02-09T03:40:29.259Z,8.10
2019-02-09T03:42:58.042Z,8.00
2019-02-09T03:45:33.042Z,8.00
2019-02-09T03:48:02.197Z,8.00
2019-02-09T03:50:34.129Z,8.00
2019-02-09T03:53:03.012Z,8.00
2019-02-09T03:55:31.601Z,7.90
2019-02-09T03:58:00.037Z,7.90
2019-02-09T04:00:31.376Z,8.00
2019-02-09T04:03:01.758Z,7.90
2019-02-09T04:05:31.736Z,7.90
2019-02-09T04:08:00.321Z,7.90
2019-02-09T04:10:29.282Z,8.00
2019-02-09T04:12:59.291Z,7.90
2019-02-09T04:15:29.232Z,7.90
2019-02-09T04:17:58.239Z,7.90
2019-02-09T04:20:27.900Z,7.80
2019-02-09T04:22:56.734Z,7.80
2019-02-09T04:25:25.652Z,7.80
2019-02-09T04:27:54.173Z,7.80
2019-02-09T04:30:34.051Z,7.70
2019-02-09T04:33:02.892Z,7.70
2019-02-09T04:35:31.428Z,7.60
2019-02-09T04:38:00.253Z,7.60
2019-02-09T04:40:32.538Z,7.60
2019-02-09T04:43:01.453Z,7.60
2019-02-09T04:45:35.661Z,7.60
2019-02-09T04:48:05.505Z,7.70
2019-02-09T04:50:35.969Z,7.70
2019-02-09T04:53:04.879Z,7.70
2019-02-09T04:55:34.685Z,7.80
2019-02-09T04:58:03.133Z,7.80
2019-02-09T05:00:33.615Z,7.80
2019-02-09T05:03:02.322Z,7.80
2019-02-09T05:05:31.530Z,7.90
2019-02-09T05:08:00.235Z,7.90
2019-02-09T05:10:29.018Z,7.90
2019-02-09T05:12:58.142Z,7.90
2019-02-09T05:15:27.088Z,7.90
2019-02-09T05:17:55.663Z,7.80
2019-02-09T05:20:25.519Z,7.80
2019-02-09T05:22:55.033Z,7.80
2019-02-09T05:25:23.612Z,7.90
2019-02-09T05:27:52.449Z,7.90
2019-02-09T05:30:23.403Z,7.90
2019-02-09T05:32:55.483Z,7.90
2019-02-09T05:35:24.086Z,7.90
2019-02-09T05:37:52.772Z,7.90
2019-02-09T05:40:23.537Z,7.80
2019-02-09T05:42:52.205Z,7.80
2019-02-09T05:45:22.761Z,7.80
2019-02-09T05:47:51.591Z,7.70
2019-02-09T05:50:21.265Z,7.70
2019-02-09T05:52:50.171Z,7.60
2019-02-09T05:55:19.492Z,7.60
2019-02-09T05:57:48.891Z,7.60
2019-02-09T06:00:25.214Z,7.60
2019-02-09T06:02:54.046Z,7.50
2019-02-09T06:05:22.583Z,7.50
2019-02-09T06:07:51.445Z,7.40
2019-02-09T06:10:20.843Z,7.40
2019-02-09T06:12:49.685Z,7.40
2019-02-09T06:15:26.552Z,7.30
2019-02-09T06:17:55.277Z,7.30
2019-02-09T06:20:30.784Z,7.30
2019-02-09T06:22:59.678Z,7.20
2019-02-09T06:25:28.451Z,7.20
2019-02-09T06:27:57.097Z,7.20
2019-02-09T06:30:28.305Z,7.10
2019-02-09T06:32:58.610Z,7.10
2019-02-09T06:35:27.537Z,7.00
2019-02-09T06:37:56.338Z,7.00
2019-02-09T06:40:25.522Z,6.90
2019-02-09T06:42:54.130Z,6.90
2019-02-09T06:45:24.556Z,6.90
2019-02-09T06:47:53.196Z,6.90
2019-02-09T06:50:24.739Z,6.90
2019-02-09T06:52:53.189Z,6.90
2019-02-09T06:55:21.626Z,6.90
2019-02-09T06:57:51.496Z,6.90
2019-02-09T07:00:21.719Z,6.90
2019-02-09T07:02:50.196Z,6.80
2019-02-09T07:05:20.632Z,6.80
2019-02-09T07:07:49.392Z,6.80
2019-02-09T07:10:20.436Z,6.80
2019-02-09T07:12:49.355Z,6.80
2019-02-09T07:15:29.104Z,6.80
2019-02-09T07:17:57.576Z,6.70
2019-02-09T07:20:26.464Z,6.70
2019-02-09T07:22:55.038Z,6.80
2019-02-09T07:25:24.120Z,6.80
2019-02-09T07:27:53.132Z,6.80
2019-02-09T07:30:31.170Z,6.80
2019-02-09T07:33:00.492Z,6.80
2019-02-09T07:35:29.209Z,6.90
2019-02-09T07:37:57.906Z,6.90
2019-02-09T07:40:28.842Z,7.00
2019-02-09T07:42:57.388Z,7.00
2019-02-09T07:45:31.482Z,7.10
2019-02-09T07:48:01.228Z,7.10
2019-02-09T07:50:30.180Z,7.20
2019-02-09T07:52:59.926Z,7.20
2019-02-09T07:55:28.758Z,7.30
2019-02-09T07:57:57.297Z,7.50
2019-02-09T08:00:30.711Z,7.60
2019-02-09T08:03:00.044Z,7.70
2019-02-09T08:05:30.361Z,7.80
2019-02-09T08:07:58.877Z,7.90
2019-02-09T08:10:32.316Z,7.90
2019-02-09T08:13:01.943Z,7.80
2019-02-09T08:15:32.390Z,7.70
2019-02-09T08:18:02.431Z,7.50
2019-02-09T08:20:32.015Z,7.40
2019-02-09T08:23:05.998Z,7.30
2019-02-09T08:25:37.100Z,7.20
2019-02-09T08:28:07.699Z,7.20
2019-02-09T08:30:39.712Z,7.10
2019-02-09T08:33:08.935Z,7.10
2019-02-09T08:35:37.579Z,7.00
2019-02-09T08:38:09.124Z,7.00
2019-02-09T08:40:38.019Z,7.00
2019-02-09T08:43:06.499Z,7.00
2019-02-09T08:45:35.121Z,7.00
2019-02-09T08:48:05.148Z,7.10
2019-02-09T08:50:39.028Z,7.20
2019-02-09T08:53:07.570Z,7.30
2019-02-09T08:55:36.038Z,7.60
2019-02-09T08:58:05.621Z,7.90
2019-02-09T09:00:36.098Z,8.00
2019-02-09T09:03:05.383Z,8.10
2019-02-09T09:05:34.000Z,8.30
2019-02-09T09:08:02.890Z,8.40
2019-02-09T09:10:32.007Z,8.40
2019-02-09T09:13:01.181Z,8.30
2019-02-09T09:15:45.625Z,8.20
2019-02-09T09:18:14.337Z,8.10
2019-02-09T09:20:51.877Z,8.00
2019-02-09T09:23:20.393Z,7.90
2019-02-09T09:25:50.023Z,7.80
2019-02-09T09:28:18.585Z,7.80
2019-02-09T09:30:47.093Z,7.90
2019-02-09T09:33:16.039Z,7.90
2019-02-09T09:35:44.923Z,7.90
2019-02-09T09:38:13.631Z,8.00
2019-02-09T09:40:44.086Z,8.00
2019-02-09T09:43:12.969Z,8.10
2019-02-09T09:45:43.236Z,8.20
2019-02-09T09:48:14.486Z,8.30
2019-02-09T09:50:43.022Z,8.30
2019-02-09T09:53:11.621Z,8.30
2019-02-09T09:55:40.431Z,8.50
2019-02-09T09:58:09.333Z,9.00
2019-02-09T10:00:37.939Z,9.40
2019-02-09T10:03:06.555Z,9.40
2019-02-09T10:05:35.193Z,9.30
2019-02-09T10:08:04.758Z,9.10
2019-02-09T10:10:35.909Z,9.00
2019-02-09T10:13:05.329Z,9.10
2019-02-09T10:15:33.853Z,9.20
2019-02-09T10:18:02.797Z,9.20
2019-02-09T10:20:31.593Z,9.30
2019-02-09T10:23:00.037Z,9.40
2019-02-09T10:25:28.529Z,9.50
2019-02-09T10:27:57.551Z,9.70
2019-02-09T10:30:33.445Z,10.00
2019-02-09T10:33:02.393Z,10.30
2019-02-09T10:35:31.004Z,10.40
2019-02-09T10:37:59.493Z,10.70
2019-02-09T10:40:33.598Z,10.80
2019-02-09T10:43:02.644Z,11.10
2019-02-09T10:45:31.929Z,11.20
2019-02-09T10:48:02.191Z,11.50
2019-02-09T10:50:39.155Z,11.70
2019-02-09T10:53:07.939Z,11.30
2019-02-09T10:55:36.421Z,11.40
2019-02-09T10:58:05.443Z,11.30
2019-02-09T11:00:48.539Z,10.90
2019-02-09T11:03:17.549Z,10.60
2019-02-09T11:05:47.967Z,10.30
2019-02-09T11:08:16.825Z,10.00
2019-02-09T11:10:45.747Z,9.90
2019-02-09T11:13:14.919Z,9.80
2019-02-09T11:15:43.547Z,9.80
2019-02-09T11:18:12.163Z,9.70
2019-02-09T11:20:40.879Z,9.70
2019-02-09T11:23:09.509Z,9.70
2019-02-09T11:25:38.982Z,9.70
2019-02-09T11:28:08.768Z,9.60
2019-02-09T11:30:41.649Z,9.50
2019-02-09T11:33:10.257Z,9.50
2019-02-09T11:35:40.653Z,9.40
2019-02-09T11:38:10.661Z,9.30
2019-02-09T11:40:39.349Z,9.30
2019-02-09T11:43:07.936Z,9.20
2019-02-09T11:45:36.982Z,9.20
2019-02-09T11:48:06.788Z,9.10
2019-02-09T11:50:40.744Z,9.10
2019-02-09T11:53:13.165Z,9.00
2019-02-09T11:55:47.027Z,8.90
2019-02-09T11:58:16.910Z,8.90
2019-02-09T12:00:48.416Z,9.00
2019-02-09T12:03:16.902Z,9.20
2019-02-09T12:05:47.145Z,9.50
2019-02-09T12:08:15.662Z,9.90
2019-02-09T12:10:44.205Z,10.30
2019-02-09T12:13:13.148Z,10.60
2019-02-09T12:15:42.046Z,10.60
2019-02-09T12:18:15.204Z,10.50
2019-02-09T12:20:43.636Z,10.40
2019-02-09T12:23:12.146Z,10.20
2019-02-09T12:25:41.410Z,10.20
2019-02-09T12:28:13.403Z,10.20
2019-02-09T12:30:42.124Z,10.20
2019-02-09T12:33:13.720Z,10.40
2019-02-09T12:35:43.810Z,10.60
2019-02-09T12:38:12.606Z,10.80
2019-02-09T12:40:41.371Z,10.90
2019-02-09T12:43:09.913Z,11.00
2019-02-09T12:45:40.381Z,11.10
2019-02-09T12:48:10.636Z,11.50
2019-02-09T12:50:40.209Z,11.70
2019-02-09T12:53:08.926Z,11.80
2019-02-09T12:55:37.980Z,12.00
2019-02-09T12:58:06.974Z,11.90
2019-02-09T13:00:39.734Z,11.60
2019-02-09T13:03:14.594Z,11.40
2019-02-09T13:05:43.597Z,11.10
2019-02-09T13:08:12.388Z,11.00
2019-02-09T13:10:40.918Z,10.90
2019-02-09T13:13:11.532Z,10.80
2019-02-09T13:15:40.126Z,10.70
2019-02-09T13:18:09.055Z,10.70
2019-02-09T13:20:40.868Z,10.70
2019-02-09T13:23:10.394Z,10.70
2019-02-09T13:25:39.024Z,10.60
2019-02-09T13:28:07.911Z,10.60
2019-02-09T13:30:42.263Z,10.60
2019-02-09T13:33:11.633Z,10.60
2019-02-09T13:35:40.499Z,10.70
2019-02-09T13:38:09.621Z,10.80
2019-02-09T13:40:38.234Z,10.90
2019-02-09T13:43:10.617Z,11.10
2019-02-09T13:45:46.584Z,11.20
2019-02-09T13:48:15.611Z,11.40
2019-02-09T13:50:44.589Z,11.20
2019-02-09T13:53:13.620Z,11.00
2019-02-09T13:55:43.591Z,10.70
2019-02-09T13:58:12.419Z,10.50
2019-02-09T14:00:40.921Z,10.30
2019-02-09T14:03:09.641Z,10.20
2019-02-09T14:05:39.106Z,10.30
2019-02-09T14:08:07.780Z,10.40
2019-02-09T14:10:36.821Z,10.70
2019-02-09T14:13:05.474Z,11.10
2019-02-09T14:15:37.176Z,11.40
2019-02-09T14:18:10.923Z,11.50
2019-02-09T14:20:42.744Z,11.60
2019-02-09T14:23:13.708Z,11.50
2019-02-09T14:26:31.133Z,11.40
2019-02-09T14:29:00.085Z,10.90
2019-02-09T14:31:28.609Z,10.50
2019-02-09T14:33:57.099Z,10.30
2019-02-09T14:36:26.000Z,10.10
2019-02-09T14:38:56.461Z,10.00
2019-02-09T14:41:25.288Z,9.90
2019-02-09T14:43:54.102Z,9.80
2019-02-09T14:46:22.695Z,9.70
2019-02-09T14:48:51.161Z,9.70
2019-02-09T14:51:19.907Z,9.60
2019-02-09T14:53:48.727Z,9.40
2019-02-09T14:56:17.574Z,9.20
2019-02-09T14:58:46.068Z,9.10
2019-02-09T15:01:14.596Z,9.10
2019-02-09T15:03:43.111Z,9.00
2019-02-09T15:06:11.910Z,9.00
2019-02-09T15:08:40.440Z,9.00
2019-02-09T15:11:09.252Z,9.10
2019-02-09T15:13:37.970Z,9.20
2019-02-09T15:16:18.207Z,9.20
2019-02-09T15:18:47.561Z,9.30
2019-02-09T15:21:16.185Z,9.40
2019-02-09T15:23:44.766Z,9.40
2019-02-09T15:26:13.423Z,9.50
2019-02-09T15:28:43.084Z,9.50
2019-02-09T15:31:11.615Z,9.50
2019-02-09T15:33:40.133Z,9.60
2019-02-09T15:36:08.722Z,9.70
2019-02-09T15:38:37.593Z,9.70
2019-02-09T15:41:06.053Z,9.60
2019-02-09T15:43:36.110Z,9.60
2019-02-09T15:46:05.149Z,9.50
2019-02-09T15:48:33.978Z,9.50
2019-02-09T15:51:02.775Z,9.50
2019-02-09T15:53:31.776Z,9.50
2019-02-09T15:56:00.384Z,9.50
2019-02-09T15:58:28.988Z,9.50
2019-02-09T16:00:57.611Z,9.50
2019-02-09T16:03:26.502Z,9.50
2019-02-09T16:05:55.061Z,9.50
2019-02-09T16:08:23.504Z,9.50
2019-02-09T16:10:52.061Z,9.50
2019-02-09T16:13:20.592Z,9.40
2019-02-09T16:15:50.423Z,9.40
2019-02-09T16:18:21.118Z,9.40
2019-02-09T16:20:49.672Z,9.30
2019-02-09T16:23:18.285Z,9.20
2019-02-09T16:25:47.100Z,9.20
2019-02-09T16:28:15.723Z,9.10
2019-02-09T16:30:45.140Z,9.10
2019-02-09T16:33:13.913Z,9.00
2019-02-09T16:35:42.770Z,9.00
2019-02-09T16:38:11.500Z,8.90
2019-02-09T16:40:41.780Z,8.80
2019-02-09T16:43:10.876Z,8.80
2019-02-09T16:45:40.404Z,8.80
2019-02-09T16:48:10.978Z,8.70
2019-02-09T16:50:39.509Z,8.70
2019-02-09T16:53:10.190Z,8.70
2019-02-09T16:55:41.806Z,8.70
2019-02-09T16:58:14.340Z,8.60
2019-02-09T17:00:46.216Z,8.70
2019-02-09T17:03:14.757Z,8.60
2019-02-09T17:05:45.174Z,8.60
2019-02-09T17:08:13.950Z,8.60
2019-02-09T17:10:42.710Z,8.50
2019-02-09T17:13:11.496Z,8.50
2019-02-09T17:15:40.114Z,8.50
2019-02-09T17:18:09.370Z,8.40
2019-02-09T17:20:37.975Z,8.40
2019-02-09T17:23:06.748Z,8.30
2019-02-09T17:25:35.860Z,8.30
2019-02-09T17:28:05.218Z,8.30
2019-02-09T17:30:35.931Z,8.30
2019-02-09T17:33:05.255Z,8.20
2019-02-09T17:35:33.836Z,8.20
2019-02-09T17:38:04.320Z,8.20
2019-02-09T17:40:38.736Z,8.30
2019-02-09T17:43:09.201Z,8.20
2019-02-09T17:45:40.984Z,8.20
2019-02-09T17:48:09.765Z,8.20
2019-02-09T17:50:38.553Z,8.20
2019-02-09T17:53:07.071Z,8.20
2019-02-09T17:55:36.923Z,8.20
2019-02-09T17:58:05.932Z,8.20
2019-02-09T18:00:36.036Z,8.20
2019-02-09T18:03:06.457Z,8.20
2019-02-09T18:05:36.041Z,8.20
2019-02-09T18:08:06.193Z,8.20
2019-02-09T18:10:35.473Z,8.20
2019-02-09T18:13:04.643Z,8.20
2019-02-09T18:15:33.081Z,8.10
2019-02-09T18:18:01.541Z,8.10
2019-02-09T18:20:31.578Z,8.10
2019-02-09T18:23:00.104Z,8.00
2019-02-09T18:25:28.718Z,8.00
2019-02-09T18:27:57.628Z,8.10
2019-02-09T18:30:29.210Z,8.00
2019-02-09T18:32:58.138Z,8.00
2019-02-09T18:35:27.036Z,8.00
2019-02-09T18:37:55.481Z,8.00
2019-02-09T18:40:28.070Z,8.00
2019-02-09T18:42:56.650Z,8.00
2019-02-09T18:45:32.950Z,8.00
2019-02-09T18:48:01.665Z,8.10
2019-02-09T18:50:31.667Z,8.10
2019-02-09T18:53:03.168Z,8.10
2019-02-09T18:55:31.956Z,8.10
2019-02-09T18:58:01.634Z,8.10
2019-02-09T19:00:32.744Z,8.10
2019-02-09T19:03:02.166Z,8.10
2019-02-09T19:05:30.952Z,8.10
2019-02-09T19:08:01.722Z,8.10
2019-02-09T19:10:30.556Z,8.00
2019-02-09T19:12:58.996Z,8.00
2019-02-09T19:15:28.459Z,8.00
2019-02-09T19:17:58.471Z,8.00
2019-02-09T19:20:35.933Z,8.00
2019-02-09T19:23:04.995Z,8.00
2019-02-09T19:25:33.992Z,8.00
2019-02-09T19:28:02.490Z,8.00
2019-02-09T19:30:31.045Z,8.00
2019-02-09T19:32:59.861Z,7.90
2019-02-09T19:35:28.319Z,7.90
2019-02-09T19:38:00.761Z,7.90
2019-02-09T19:40:29.479Z,7.90
2019-02-09T19:42:57.936Z,7.90
2019-02-09T19:45:36.679Z,7.90
2019-02-09T19:48:06.648Z,7.80
2019-02-09T19:50:35.501Z,7.80
2019-02-09T19:53:04.688Z,7.80
2019-02-09T19:55:34.933Z,7.80
2019-02-09T19:58:03.661Z,7.80
2019-02-09T20:00:38.351Z,7.80
2019-02-09T20:03:07.352Z,7.80
2019-02-09T20:05:36.094Z,7.80
2019-02-09T20:08:06.219Z,7.80
2019-02-09T20:10:40.423Z,7.80
2019-02-09T20:13:10.991Z,7.80
2019-02-09T20:15:39.847Z,7.70
2019-02-09T20:18:09.688Z,7.70
2019-02-09T20:20:46.458Z,7.80
2019-02-09T20:23:10.252Z,7.70
2019-02-09T20:25:39.169Z,7.80
2019-02-09T20:28:09.557Z,7.70
2019-02-09T20:30:39.380Z,7.70
2019-02-09T20:33:10.382Z,7.70
2019-02-09T20:35:38.789Z,7.70
2019-02-09T20:38:10.068Z,7.70
2019-02-09T20:40:41.676Z,7.70
2019-02-09T20:43:15.778Z,7.60
2019-02-09T20:45:44.718Z,7.60
2019-02-09T20:48:13.313Z,7.60
2019-02-09T20:50:42.062Z,7.60
2019-02-09T20:53:10.733Z,7.60
2019-02-09T20:55:39.267Z,7.60
2019-02-09T20:58:09.362Z,7.70
2019-02-09T21:00:37.883Z,7.70
2019-02-09T21:03:06.992Z,7.70
2019-02-09T21:05:36.818Z,7.70
2019-02-09T21:08:07.575Z,7.80
2019-02-09T21:10:41.306Z,7.80
2019-02-09T21:13:10.146Z,7.80
2019-02-09T21:15:38.730Z,7.90
2019-02-09T21:18:10.440Z,7.90
2019-02-09T21:20:39.177Z,8.00
2019-02-09T21:23:08.719Z,8.00
2019-02-09T21:25:42.885Z,8.00
2019-02-09T21:28:11.482Z,8.00
2019-02-09T21:30:40.111Z,8.10
2019-02-09T21:33:09.033Z,8.20
2019-02-09T21:35:43.678Z,8.20
2019-02-09T21:38:07.990Z,8.30
2019-02-09T21:40:36.534Z,8.30
2019-02-09T21:43:05.712Z,8.30
2019-02-09T21:45:34.412Z,8.30
2019-02-09T21:48:02.982Z,8.30
2019-02-09T21:50:38.730Z,8.40
2019-02-09T21:53:10.268Z,8.40
2019-02-09T21:55:39.715Z,8.30
2019-02-09T21:58:09.777Z,8.30
2019-02-09T22:00:43.572Z,8.30
2019-02-09T22:03:12.495Z,8.30
2019-02-09T22:05:41.451Z,8.30
2019-02-09T22:08:19.540Z,8.30
2019-02-09T22:10:46.522Z,8.30
2019-02-09T22:13:16.234Z,8.30
2019-02-09T22:15:44.775Z,8.30
2019-02-09T22:18:14.834Z,8.30
2019-02-09T22:20:54.877Z,8.30
2019-02-09T22:23:23.458Z,8.30
2019-02-09T22:25:52.032Z,8.30
2019-02-09T22:28:20.524Z,8.40
2019-02-09T22:30:49.125Z,8.30
2019-02-09T22:33:24.588Z,8.30
2019-02-09T22:35:50.993Z,8.40
2019-02-09T22:38:21.075Z,8.40
2019-02-09T22:40:49.606Z,8.40
2019-02-09T22:43:18.074Z,8.40
2019-02-09T22:45:46.719Z,8.40
2019-02-09T22:48:17.766Z,8.40
2019-02-09T22:50:47.877Z,8.40
2019-02-09T22:53:16.466Z,8.40
2019-02-09T22:55:46.242Z,8.40
2019-02-09T22:58:15.102Z,8.30
2019-02-09T23:01:04.816Z,8.40
2019-02-09T23:03:42.368Z,8.40
2019-02-09T23:06:16.930Z,8.40
2019-02-09T23:08:57.908Z,8.40
2019-02-09T23:11:26.441Z,8.40
2019-02-09T23:13:54.885Z,8.40
2019-02-09T23:16:23.684Z,8.40
2019-02-09T23:18:52.264Z,8.40
2019-02-09T23:21:21.049Z,8.40
2019-02-09T23:23:49.765Z,8.50
2019-02-09T23:26:18.631Z,8.40
2019-02-09T23:28:47.071Z,8.40
2019-02-09T23:31:15.891Z,8.40
2019-02-09T23:33:46.237Z,8.40
2019-02-09T23:36:16.381Z,8.40
2019-02-09T23:38:47.092Z,8.40
2019-02-09T23:41:15.903Z,8.40
2019-02-09T23:43:44.725Z,8.50
2019-02-09T23:46:13.449Z,8.50
2019-02-09T23:48:42.652Z,8.50
2019-02-09T23:51:11.101Z,8.50
2019-02-09T23:53:39.917Z,8.50
2019-02-09T23:56:08.430Z,8.50
2019-02-09T23:58:36.891Z,8.50
